sensor_id;sensor_type;location;lat;lon;timestamp;P1;durP1;ratioP1;P2;durP2;ratioP2
37169;SDS011;23062;13.952;100.608;2023-04-06T00:03:25;64.00;;;47.00;;
37169;SDS011;23062;13.952;100.608;2023-04-06T00:07:51;63.00;;;46.00;;
37169;SDS011;23062;13.952;100.608;2023-04-06T00:12:18;59.00;;;44.00;;
37169;SDS011;23062;13.952;100.608;2023-04-06T00:16:43;57.00;;;42.00;;
37169;SDS011;23062;13.952;100.608;2023-04-06T00:21:11;57.00;;;43.00;;
37169;SDS011;23062;13.952;100.608;2023-04-06T00:25:44;54.00;;;42.00;;
37169;SDS011;23062;13.952;100.608;2023-04-06T00:30:09;55.00;;;43.00;;
37169;SDS011;23062;13.952;100.608;2023-04-06T00:34:35;52.00;;;39.00;;
37169;SDS011;23062;13.952;100.608;2023-04-06T00:39:01;59.00;;;43.00;;
37169;SDS011;23062;13.952;100.608;2023-04-06T00:43:29;56.00;;;43.00;;
37169;SDS011;23062;13.952;100.608;2023-04-06T00:47:55;59.00;;;45.00;;
37169;SDS011;23062;13.952;100.608;2023-04-06T00:52:21;55.00;;;42.00;;
37169;SDS011;23062;13.952;100.608;2023-04-06T00:56:49;52.00;;;39.00;;
37169;SDS011;23062;13.952;100.608;2023-04-06T01:01:14;56.00;;;44.00;;
37169;SDS011;23062;13.952;100.608;2023-04-06T01:05:40;54.00;;;41.00;;
37169;SDS011;23062;13.952;100.608;2023-04-06T01:10:09;53.00;;;39.00;;
37169;SDS011;23062;13.952;100.608;2023-04-06T01:14:36;53.00;;;39.00;;
37169;SDS011;23062;13.952;100.608;2023-04-06T01:19:01;52.00;;;40.00;;
37169;SDS011;23062;13.952;100.608;2023-04-06T01:23:34;51.00;;;40.00;;
37169;SDS011;23062;13.952;100.608;2023-04-06T01:27:59;49.00;;;36.00;;
37169;SDS011;23062;13.952;100.608;2023-04-06T01:32:24;53.00;;;40.00;;
37169;SDS011;23062;13.952;100.608;2023-04-06T01:36:49;47.00;;;37.00;;
37169;SDS011;23062;13.952;100.608;2023-04-06T01:41:17;50.00;;;38.00;;
37169;SDS011;23062;13.952;100.608;2023-04-06T01:45:44;47.00;;;36.00;;
37169;SDS011;23062;13.952;100.608;2023-04-06T01:50:09;49.00;;;37.00;;
37169;SDS011;23062;13.952;100.608;2023-04-06T01:54:35;47.00;;;34.53;;
37169;SDS011;23062;13.952;100.608;2023-04-06T01:59:00;46.00;;;36.00;;
37169;SDS011;23062;13.952;100.608;2023-04-06T02:03:25;46.00;;;35.00;;
37169;SDS011;23062;13.952;100.608;2023-04-06T02:07:52;47.00;;;32.67;;
37169;SDS011;23062;13.952;100.608;2023-04-06T02:12:17;48.00;;;37.00;;
37169;SDS011;23062;13.952;100.608;2023-04-06T02:16:43;48.00;;;36.00;;
37169;SDS011;23062;13.952;100.608;2023-04-06T02:21:11;48.00;;;38.00;;
37169;SDS011;23062;13.952;100.608;2023-04-06T02:25:36;47.00;;;37.00;;
37169;SDS011;23062;13.952;100.608;2023-04-06T02:30:02;50.00;;;39.00;;
37169;SDS011;23062;13.952;100.608;2023-04-06T02:34:30;49.00;;;37.00;;
37169;SDS011;23062;13.952;100.608;2023-04-06T02:38:55;52.00;;;38.00;;
37169;SDS011;23062;13.952;100.608;2023-04-06T02:43:21;48.00;;;36.00;;
37169;SDS011;23062;13.952;100.608;2023-04-06T02:47:49;52.00;;;38.00;;
37169;SDS011;23062;13.952;100.608;2023-04-06T02:52:14;49.00;;;39.00;;
37169;SDS011;23062;13.952;100.608;2023-04-06T02:56:40;47.00;;;36.00;;
37169;SDS011;23062;13.952;100.608;2023-04-06T03:01:05;52.00;;;39.00;;
37169;SDS011;23062;13.952;100.608;2023-04-06T03:05:34;53.00;;;40.00;;
37169;SDS011;23062;13.952;100.608;2023-04-06T03:10:00;51.00;;;39.00;;
37169;SDS011;23062;13.952;100.608;2023-04-06T03:14:25;54.00;;;41.00;;
37169;SDS011;23062;13.952;100.608;2023-04-06T03:18:51;52.00;;;41.00;;
37169;SDS011;23062;13.952;100.608;2023-04-06T03:23:23;59.00;;;43.00;;
37169;SDS011;23062;13.952;100.608;2023-04-06T03:27:48;60.00;;;44.00;;
37169;SDS011;23062;13.952;100.608;2023-04-06T03:32:14;57.00;;;42.00;;
37169;SDS011;23062;13.952;100.608;2023-04-06T03:36:39;58.00;;;43.00;;
37169;SDS011;23062;13.952;100.608;2023-04-06T03:41:04;59.00;;;45.00;;
37169;SDS011;23062;13.952;100.608;2023-04-06T03:45:30;62.00;;;47.00;;
37169;SDS011;23062;13.952;100.608;2023-04-06T03:49:56;60.00;;;45.00;;
37169;SDS011;23062;13.952;100.608;2023-04-06T03:54:21;61.00;;;45.00;;
37169;SDS011;23062;13.952;100.608;2023-04-06T03:58:50;60.00;;;47.00;;
37169;SDS011;23062;13.952;100.608;2023-04-06T04:03:15;61.00;;;45.00;;
37169;SDS011;23062;13.952;100.608;2023-04-06T04:07:40;61.00;;;46.00;;
37169;SDS011;23062;13.952;100.608;2023-04-06T04:12:06;55.00;;;43.00;;
37169;SDS011;23062;13.952;100.608;2023-04-06T04:16:34;54.00;;;43.00;;
37169;SDS011;23062;13.952;100.608;2023-04-06T04:21:01;56.00;;;43.00;;
37169;SDS011;23062;13.952;100.608;2023-04-06T04:25:30;60.00;;;46.00;;
37169;SDS011;23062;13.952;100.608;2023-04-06T04:29:55;60.00;;;45.00;;
37169;SDS011;23062;13.952;100.608;2023-04-06T04:34:24;58.00;;;46.00;;
37169;SDS011;23062;13.952;100.608;2023-04-06T04:38:49;64.00;;;47.00;;
37169;SDS011;23062;13.952;100.608;2023-04-06T04:43:15;57.00;;;43.00;;
37169;SDS011;23062;13.952;100.608;2023-04-06T04:47:40;60.00;;;44.00;;
37169;SDS011;23062;13.952;100.608;2023-04-06T04:52:05;62.00;;;46.00;;
37169;SDS011;23062;13.952;100.608;2023-04-06T04:56:34;56.00;;;44.00;;
37169;SDS011;23062;13.952;100.608;2023-04-06T05:00:59;57.00;;;39.00;;
37169;SDS011;23062;13.952;100.608;2023-04-06T05:05:25;62.00;;;46.00;;
37169;SDS011;23062;13.952;100.608;2023-04-06T05:09:53;69.00;;;51.00;;
37169;SDS011;23062;13.952;100.608;2023-04-06T05:14:21;67.00;;;52.00;;
37169;SDS011;23062;13.952;100.608;2023-04-06T05:18:47;63.00;;;50.00;;
37169;SDS011;23062;13.952;100.608;2023-04-06T05:23:15;59.00;;;46.00;;
37169;SDS011;23062;13.952;100.608;2023-04-06T05:27:41;56.00;;;44.00;;
37169;SDS011;23062;13.952;100.608;2023-04-06T05:32:06;60.00;;;48.00;;
37169;SDS011;23062;13.952;100.608;2023-04-06T05:36:31;63.00;;;50.00;;
37169;SDS011;23062;13.952;100.608;2023-04-06T05:40:56;66.00;;;49.00;;
37169;SDS011;23062;13.952;100.608;2023-04-06T05:45:22;67.00;;;49.00;;
37169;SDS011;23062;13.952;100.608;2023-04-06T05:49:47;62.00;;;49.00;;
37169;SDS011;23062;13.952;100.608;2023-04-06T05:54:14;66.00;;;50.00;;
37169;SDS011;23062;13.952;100.608;2023-04-06T05:58:40;63.00;;;49.00;;
37169;SDS011;23062;13.952;100.608;2023-04-06T06:03:05;69.00;;;52.00;;
37169;SDS011;23062;13.952;100.608;2023-04-06T06:07:30;61.00;;;47.00;;
37169;SDS011;23062;13.952;100.608;2023-04-06T06:11:56;62.00;;;48.00;;
37169;SDS011;23062;13.952;100.608;2023-04-06T06:16:23;65.00;;;51.00;;
37169;SDS011;23062;13.952;100.608;2023-04-06T06:20:48;65.00;;;49.00;;
37169;SDS011;23062;13.952;100.608;2023-04-06T06:25:13;63.00;;;49.00;;
37169;SDS011;23062;13.952;100.608;2023-04-06T06:29:39;68.00;;;51.00;;
37169;SDS011;23062;13.952;100.608;2023-04-06T06:34:03;67.00;;;50.00;;
37169;SDS011;23062;13.952;100.608;2023-04-06T06:38:31;70.00;;;52.00;;
37169;SDS011;23062;13.952;100.608;2023-04-06T06:43:00;70.00;;;53.00;;
37169;SDS011;23062;13.952;100.608;2023-04-06T06:47:25;67.00;;;50.00;;
37169;SDS011;23062;13.952;100.608;2023-04-06T06:51:50;70.00;;;54.00;;
37169;SDS011;23062;13.952;100.608;2023-04-06T06:56:15;67.00;;;53.00;;
37169;SDS011;23062;13.952;100.608;2023-04-06T07:00:40;69.00;;;54.00;;
37169;SDS011;23062;13.952;100.608;2023-04-06T07:05:07;69.00;;;53.00;;
37169;SDS011;23062;13.952;100.608;2023-04-06T07:09:32;70.00;;;54.00;;
37169;SDS011;23062;13.952;100.608;2023-04-06T07:13:57;75.00;;;56.00;;
37169;SDS011;23062;13.952;100.608;2023-04-06T07:18:26;71.00;;;52.00;;
37169;SDS011;23062;13.952;100.608;2023-04-06T07:22:51;71.00;;;53.00;;
37169;SDS011;23062;13.952;100.608;2023-04-06T07:27:17;71.00;;;46.80;;
37169;SDS011;23062;13.952;100.608;2023-04-06T07:31:42;78.00;;;57.00;;
37169;SDS011;23062;13.952;100.608;2023-04-06T07:36:08;72.00;;;56.00;;
37169;SDS011;23062;13.952;100.608;2023-04-06T07:40:33;72.00;;;54.00;;
37169;SDS011;23062;13.952;100.608;2023-04-06T07:44:58;70.00;;;55.00;;
37169;SDS011;23062;13.952;100.608;2023-04-06T07:49:24;73.00;;;56.00;;
37169;SDS011;23062;13.952;100.608;2023-04-06T07:53:50;78.00;;;58.00;;
37169;SDS011;23062;13.952;100.608;2023-04-06T07:58:15;78.00;;;58.00;;
37169;SDS011;23062;13.952;100.608;2023-04-06T08:02:42;71.00;;;52.00;;
37169;SDS011;23062;13.952;100.608;2023-04-06T08:07:07;72.00;;;55.00;;
37169;SDS011;23062;13.952;100.608;2023-04-06T08:11:32;75.00;;;56.00;;
37169;SDS011;23062;13.952;100.608;2023-04-06T08:15:58;72.00;;;46.80;;
37169;SDS011;23062;13.952;100.608;2023-04-06T08:20:23;70.00;;;54.00;;
37169;SDS011;23062;13.952;100.608;2023-04-06T08:24:49;73.00;;;55.00;;
37169;SDS011;23062;13.952;100.608;2023-04-06T08:29:17;65.00;;;50.00;;
37169;SDS011;23062;13.952;100.608;2023-04-06T08:33:43;67.00;;;51.00;;
37169;SDS011;23062;13.952;100.608;2023-04-06T08:38:08;70.00;;;52.00;;
37169;SDS011;23062;13.952;100.608;2023-04-06T08:42:33;63.00;;;48.00;;
37169;SDS011;23062;13.952;100.608;2023-04-06T08:47:00;65.00;;;49.00;;
37169;SDS011;23062;13.952;100.608;2023-04-06T08:51:29;63.00;;;46.00;;
37169;SDS011;23062;13.952;100.608;2023-04-06T08:55:54;64.00;;;48.00;;
37169;SDS011;23062;13.952;100.608;2023-04-06T09:00:21;68.00;;;52.00;;
37169;SDS011;23062;13.952;100.608;2023-04-06T09:04:48;66.00;;;50.00;;
37169;SDS011;23062;13.952;100.608;2023-04-06T09:09:17;61.00;;;48.00;;
37169;SDS011;23062;13.952;100.608;2023-04-06T09:13:51;62.00;;;44.80;;
37169;SDS011;23062;13.952;100.608;2023-04-06T09:18:13;64.00;;;48.00;;
37169;SDS011;23062;13.952;100.608;2023-04-06T09:22:40;66.00;;;52.00;;
37169;SDS011;23062;13.952;100.608;2023-04-06T09:27:05;62.00;;;49.00;;
37169;SDS011;23062;13.952;100.608;2023-04-06T09:31:31;64.00;;;49.00;;
37169;SDS011;23062;13.952;100.608;2023-04-06T09:35:56;65.00;;;50.00;;
37169;SDS011;23062;13.952;100.608;2023-04-06T09:40:22;61.00;;;47.00;;
37169;SDS011;23062;13.952;100.608;2023-04-06T09:44:47;70.00;;;51.00;;
37169;SDS011;23062;13.952;100.608;2023-04-06T09:49:12;68.00;;;53.00;;
37169;SDS011;23062;13.952;100.608;2023-04-06T09:53:39;67.00;;;53.00;;
37169;SDS011;23062;13.952;100.608;2023-04-06T09:58:06;61.00;;;48.00;;
37169;SDS011;23062;13.952;100.608;2023-04-06T10:07:03;67.00;;;50.00;;
37169;SDS011;23062;13.952;100.608;2023-04-06T10:11:30;61.00;;;46.00;;
37169;SDS011;23062;13.952;100.608;2023-04-06T10:15:55;62.00;;;47.00;;
37169;SDS011;23062;13.952;100.608;2023-04-06T10:20:27;63.00;;;47.00;;
37169;SDS011;23062;13.952;100.608;2023-04-06T10:24:54;60.00;;;44.00;;
37169;SDS011;23062;13.952;100.608;2023-04-06T10:29:19;62.00;;;46.00;;
37169;SDS011;23062;13.952;100.608;2023-04-06T10:33:53;58.00;;;46.00;;
37169;SDS011;23062;13.952;100.608;2023-04-06T10:38:19;60.00;;;45.00;;
37169;SDS011;23062;13.952;100.608;2023-04-06T10:42:44;59.00;;;44.00;;
37169;SDS011;23062;13.952;100.608;2023-04-06T10:47:15;59.00;;;44.00;;
37169;SDS011;23062;13.952;100.608;2023-04-06T10:51:37;57.00;;;45.00;;
37169;SDS011;23062;13.952;100.608;2023-04-06T10:56:08;60.00;;;44.00;;
37169;SDS011;23062;13.952;100.608;2023-04-06T11:00:34;53.00;;;42.00;;
37169;SDS011;23062;13.952;100.608;2023-04-06T11:05:03;56.00;;;42.00;;
37169;SDS011;23062;13.952;100.608;2023-04-06T11:09:29;52.00;;;41.00;;
37169;SDS011;23062;13.952;100.608;2023-04-06T11:13:55;55.00;;;42.00;;
37169;SDS011;23062;13.952;100.608;2023-04-06T11:18:21;46.00;;;36.00;;
37169;SDS011;23062;13.952;100.608;2023-04-06T11:22:49;52.00;;;35.53;;
37169;SDS011;23062;13.952;100.608;2023-04-06T11:27:15;53.00;;;40.00;;
37169;SDS011;23062;13.952;100.608;2023-04-06T11:31:49;52.00;;;38.00;;
37169;SDS011;23062;13.952;100.608;2023-04-06T11:36:15;46.00;;;36.00;;
37169;SDS011;23062;13.952;100.608;2023-04-06T11:45:23;51.00;;;38.00;;
37169;SDS011;23062;13.952;100.608;2023-04-06T11:49:48;54.00;;;41.00;;
37169;SDS011;23062;13.952;100.608;2023-04-06T11:55:17;0.00;;;0.00;;
37169;SDS011;23062;13.952;100.608;2023-04-06T11:59:43;51.00;;;38.00;;
37169;SDS011;23062;13.952;100.608;2023-04-06T12:04:08;52.00;;;40.00;;
37169;SDS011;23062;13.952;100.608;2023-04-06T12:08:34;57.00;;;42.00;;
37169;SDS011;23062;13.952;100.608;2023-04-06T12:12:59;57.00;;;45.00;;
37169;SDS011;23062;13.952;100.608;2023-04-06T12:17:26;59.00;;;44.00;;
37169;SDS011;23062;13.952;100.608;2023-04-06T12:21:54;59.00;;;44.00;;
37169;SDS011;23062;13.952;100.608;2023-04-06T12:26:22;59.00;;;44.00;;
37169;SDS011;23062;13.952;100.608;2023-04-06T12:30:47;62.00;;;49.00;;
37169;SDS011;23062;13.952;100.608;2023-04-06T12:35:16;61.00;;;48.00;;
37169;SDS011;23062;13.952;100.608;2023-04-06T12:39:41;58.00;;;45.00;;
37169;SDS011;23062;13.952;100.608;2023-04-06T12:44:08;62.00;;;49.00;;
37169;SDS011;23062;13.952;100.608;2023-04-06T12:48:34;62.00;;;48.00;;
37169;SDS011;23062;13.952;100.608;2023-04-06T12:52:59;66.00;;;50.00;;
37169;SDS011;23062;13.952;100.608;2023-04-06T12:57:24;63.00;;;46.00;;
37169;SDS011;23062;13.952;100.608;2023-04-06T13:01:49;62.00;;;39.87;;
37169;SDS011;23062;13.952;100.608;2023-04-06T13:06:14;57.00;;;45.00;;
37169;SDS011;23062;13.952;100.608;2023-04-06T13:10:43;55.00;;;43.00;;
37169;SDS011;23062;13.952;100.608;2023-04-06T13:15:09;56.00;;;44.00;;
37169;SDS011;23062;13.952;100.608;2023-04-06T13:19:35;55.00;;;43.00;;
37169;SDS011;23062;13.952;100.608;2023-04-06T13:24:01;53.00;;;42.00;;
37169;SDS011;23062;13.952;100.608;2023-04-06T13:28:27;59.00;;;44.00;;
37169;SDS011;23062;13.952;100.608;2023-04-06T13:32:51;58.00;;;44.00;;
37169;SDS011;23062;13.952;100.608;2023-04-06T13:37:16;53.00;;;42.00;;
37169;SDS011;23062;13.952;100.608;2023-04-06T13:41:41;54.00;;;42.00;;
37169;SDS011;23062;13.952;100.608;2023-04-06T13:46:06;57.00;;;42.00;;
37169;SDS011;23062;13.952;100.608;2023-04-06T13:50:31;52.00;;;39.00;;
37169;SDS011;23062;13.952;100.608;2023-04-06T13:54:57;49.00;;;39.00;;
37169;SDS011;23062;13.952;100.608;2023-04-06T13:59:22;55.00;;;42.00;;
37169;SDS011;23062;13.952;100.608;2023-04-06T14:03:48;51.00;;;39.00;;
37169;SDS011;23062;13.952;100.608;2023-04-06T14:08:13;53.00;;;39.00;;
37169;SDS011;23062;13.952;100.608;2023-04-06T14:12:38;48.00;;;38.00;;
37169;SDS011;23062;13.952;100.608;2023-04-06T14:17:08;51.00;;;40.00;;
37169;SDS011;23062;13.952;100.608;2023-04-06T14:21:33;54.00;;;41.00;;
37169;SDS011;23062;13.952;100.608;2023-04-06T14:26:05;57.00;;;42.00;;
37169;SDS011;23062;13.952;100.608;2023-04-06T14:30:33;52.00;;;39.00;;
37169;SDS011;23062;13.952;100.608;2023-04-06T14:34:58;54.00;;;40.00;;
37169;SDS011;23062;13.952;100.608;2023-04-06T14:39:23;53.00;;;41.00;;
37169;SDS011;23062;13.952;100.608;2023-04-06T14:43:55;49.00;;;39.00;;
37169;SDS011;23062;13.952;100.608;2023-04-06T14:48:20;53.00;;;39.00;;
37169;SDS011;23062;13.952;100.608;2023-04-06T14:52:45;53.00;;;40.00;;
37169;SDS011;23062;13.952;100.608;2023-04-06T14:57:10;52.00;;;40.00;;
37169;SDS011;23062;13.952;100.608;2023-04-06T15:01:34;51.00;;;37.00;;
37169;SDS011;23062;13.952;100.608;2023-04-06T15:06:00;49.00;;;38.00;;
37169;SDS011;23062;13.952;100.608;2023-04-06T15:10:28;55.00;;;40.00;;
37169;SDS011;23062;13.952;100.608;2023-04-06T15:14:57;50.00;;;38.00;;
37169;SDS011;23062;13.952;100.608;2023-04-06T15:19:25;47.00;;;35.00;;
37169;SDS011;23062;13.952;100.608;2023-04-06T15:23:54;45.00;;;36.00;;
37169;SDS011;23062;13.952;100.608;2023-04-06T15:28:27;46.00;;;36.00;;
37169;SDS011;23062;13.952;100.608;2023-04-06T15:32:56;52.00;;;40.00;;
37169;SDS011;23062;13.952;100.608;2023-04-06T15:37:26;46.00;;;35.00;;
37169;SDS011;23062;13.952;100.608;2023-04-06T15:41:51;47.00;;;37.00;;
37169;SDS011;23062;13.952;100.608;2023-04-06T15:46:35;51.00;;;38.00;;
37169;SDS011;23062;13.952;100.608;2023-04-06T15:51:09;45.00;;;35.00;;
37169;SDS011;23062;13.952;100.608;2023-04-06T15:55:34;44.00;;;35.00;;
37169;SDS011;23062;13.952;100.608;2023-04-06T16:00:00;46.00;;;35.00;;
37169;SDS011;23062;13.952;100.608;2023-04-06T16:04:25;42.00;;;33.00;;
37169;SDS011;23062;13.952;100.608;2023-04-06T16:08:53;45.00;;;34.00;;
37169;SDS011;23062;13.952;100.608;2023-04-06T16:13:18;45.00;;;34.00;;
37169;SDS011;23062;13.952;100.608;2023-04-06T16:17:43;42.00;;;32.00;;
37169;SDS011;23062;13.952;100.608;2023-04-06T16:22:14;45.00;;;35.00;;
37169;SDS011;23062;13.952;100.608;2023-04-06T16:26:40;41.00;;;32.00;;
37169;SDS011;23062;13.952;100.608;2023-04-06T16:31:17;40.00;;;31.00;;
37169;SDS011;23062;13.952;100.608;2023-04-06T16:35:47;42.00;;;32.00;;
37169;SDS011;23062;13.952;100.608;2023-04-06T16:40:12;44.00;;;33.00;;
37169;SDS011;23062;13.952;100.608;2023-04-06T16:44:37;45.00;;;33.00;;
37169;SDS011;23062;13.952;100.608;2023-04-06T16:49:03;38.00;;;30.00;;
37169;SDS011;23062;13.952;100.608;2023-04-06T16:53:28;38.00;;;29.00;;
37169;SDS011;23062;13.952;100.608;2023-04-06T16:57:56;41.00;;;31.00;;
37169;SDS011;23062;13.952;100.608;2023-04-06T17:02:22;41.00;;;31.00;;
37169;SDS011;23062;13.952;100.608;2023-04-06T17:06:47;44.00;;;33.00;;
37169;SDS011;23062;13.952;100.608;2023-04-06T17:11:14;42.00;;;32.00;;
37169;SDS011;23062;13.952;100.608;2023-04-06T17:15:40;40.00;;;30.00;;
37169;SDS011;23062;13.952;100.608;2023-04-06T17:20:06;43.00;;;31.00;;
37169;SDS011;23062;13.952;100.608;2023-04-06T17:24:38;43.00;;;31.00;;
37169;SDS011;23062;13.952;100.608;2023-04-06T17:29:03;40.00;;;32.00;;
37169;SDS011;23062;13.952;100.608;2023-04-06T17:33:27;43.00;;;33.00;;
37169;SDS011;23062;13.952;100.608;2023-04-06T17:37:54;39.00;;;30.00;;
37169;SDS011;23062;13.952;100.608;2023-04-06T17:42:19;39.00;;;30.00;;
37169;SDS011;23062;13.952;100.608;2023-04-06T17:46:45;37.00;;;28.00;;
37169;SDS011;23062;13.952;100.608;2023-04-06T17:51:12;40.00;;;29.00;;
37169;SDS011;23062;13.952;100.608;2023-04-06T17:55:38;41.00;;;31.00;;
37169;SDS011;23062;13.952;100.608;2023-04-06T18:00:03;39.00;;;30.00;;
37169;SDS011;23062;13.952;100.608;2023-04-06T18:04:30;39.00;;;29.00;;
37169;SDS011;23062;13.952;100.608;2023-04-06T18:09:02;42.00;;;31.00;;
37169;SDS011;23062;13.952;100.608;2023-04-06T18:13:27;41.00;;;30.00;;
37169;SDS011;23062;13.952;100.608;2023-04-06T18:17:52;38.00;;;26.13;;
37169;SDS011;23062;13.952;100.608;2023-04-06T18:22:17;39.00;;;29.00;;
37169;SDS011;23062;13.952;100.608;2023-04-06T18:26:42;40.00;;;29.00;;
37169;SDS011;23062;13.952;100.608;2023-04-06T18:31:07;38.00;;;28.00;;
37169;SDS011;23062;13.952;100.608;2023-04-06T18:35:32;36.00;;;28.00;;
37169;SDS011;23062;13.952;100.608;2023-04-06T18:39:57;36.00;;;24.27;;
37169;SDS011;23062;13.952;100.608;2023-04-06T18:44:22;37.00;;;27.00;;
37169;SDS011;23062;13.952;100.608;2023-04-06T18:48:48;38.00;;;28.00;;
37169;SDS011;23062;13.952;100.608;2023-04-06T18:53:13;41.00;;;30.00;;
37169;SDS011;23062;13.952;100.608;2023-04-06T18:57:38;35.00;;;27.00;;
37169;SDS011;23062;13.952;100.608;2023-04-06T19:02:03;36.00;;;26.00;;
37169;SDS011;23062;13.952;100.608;2023-04-06T19:06:30;36.00;;;27.00;;
37169;SDS011;23062;13.952;100.608;2023-04-06T19:10:55;36.00;;;28.00;;
37169;SDS011;23062;13.952;100.608;2023-04-06T19:15:20;37.00;;;28.00;;
37169;SDS011;23062;13.952;100.608;2023-04-06T19:19:45;37.00;;;27.00;;
37169;SDS011;23062;13.952;100.608;2023-04-06T19:24:13;37.00;;;27.00;;
37169;SDS011;23062;13.952;100.608;2023-04-06T19:28:38;33.00;;;26.00;;
37169;SDS011;23062;13.952;100.608;2023-04-06T19:33:03;35.00;;;26.00;;
37169;SDS011;23062;13.952;100.608;2023-04-06T19:37:28;37.00;;;27.00;;
37169;SDS011;23062;13.952;100.608;2023-04-06T19:42:00;33.00;;;26.00;;
37169;SDS011;23062;13.952;100.608;2023-04-06T19:46:25;33.00;;;25.00;;
37169;SDS011;23062;13.952;100.608;2023-04-06T19:50:53;36.00;;;26.00;;
37169;SDS011;23062;13.952;100.608;2023-04-06T19:55:18;36.00;;;27.00;;
37169;SDS011;23062;13.952;100.608;2023-04-06T19:59:44;33.00;;;25.00;;
37169;SDS011;23062;13.952;100.608;2023-04-06T20:04:12;36.00;;;26.00;;
37169;SDS011;23062;13.952;100.608;2023-04-06T20:08:45;33.00;;;24.00;;
37169;SDS011;23062;13.952;100.608;2023-04-06T20:13:10;32.00;;;25.00;;
37169;SDS011;23062;13.952;100.608;2023-04-06T20:17:43;33.00;;;25.00;;
37169;SDS011;23062;13.952;100.608;2023-04-06T20:22:08;31.00;;;24.00;;
37169;SDS011;23062;13.952;100.608;2023-04-06T20:26:33;33.00;;;24.00;;
37169;SDS011;23062;13.952;100.608;2023-04-06T20:30:58;33.00;;;24.00;;
37169;SDS011;23062;13.952;100.608;2023-04-06T20:35:30;34.00;;;25.00;;
37169;SDS011;23062;13.952;100.608;2023-04-06T20:40:04;28.00;;;22.00;;
37169;SDS011;23062;13.952;100.608;2023-04-06T20:44:30;31.00;;;23.00;;
37169;SDS011;23062;13.952;100.608;2023-04-06T20:48:56;34.00;;;25.00;;
37169;SDS011;23062;13.952;100.608;2023-04-06T20:53:21;35.00;;;27.00;;
37169;SDS011;23062;13.952;100.608;2023-04-06T20:57:46;38.00;;;28.00;;
37169;SDS011;23062;13.952;100.608;2023-04-06T21:02:11;37.00;;;27.00;;
37169;SDS011;23062;13.952;100.608;2023-04-06T21:06:36;34.00;;;25.00;;
37169;SDS011;23062;13.952;100.608;2023-04-06T21:11:01;37.00;;;28.00;;
37169;SDS011;23062;13.952;100.608;2023-04-06T21:15:27;36.00;;;27.00;;
37169;SDS011;23062;13.952;100.608;2023-04-06T21:19:51;37.00;;;29.00;;
37169;SDS011;23062;13.952;100.608;2023-04-06T21:24:16;36.00;;;27.00;;
37169;SDS011;23062;13.952;100.608;2023-04-06T21:28:41;37.00;;;29.00;;
37169;SDS011;23062;13.952;100.608;2023-04-06T21:33:07;41.00;;;30.00;;
37169;SDS011;23062;13.952;100.608;2023-04-06T21:37:32;39.00;;;29.00;;
37169;SDS011;23062;13.952;100.608;2023-04-06T21:41:57;39.00;;;29.00;;
37169;SDS011;23062;13.952;100.608;2023-04-06T21:46:22;41.00;;;30.00;;
37169;SDS011;23062;13.952;100.608;2023-04-06T21:50:47;34.00;;;27.00;;
37169;SDS011;23062;13.952;100.608;2023-04-06T21:55:14;36.00;;;28.00;;
37169;SDS011;23062;13.952;100.608;2023-04-06T21:59:43;36.00;;;26.00;;
37169;SDS011;23062;13.952;100.608;2023-04-06T22:04:12;39.00;;;30.00;;
37169;SDS011;23062;13.952;100.608;2023-04-06T22:08:38;36.00;;;28.00;;
37169;SDS011;23062;13.952;100.608;2023-04-06T22:13:10;39.00;;;29.00;;
37169;SDS011;23062;13.952;100.608;2023-04-06T22:17:36;37.00;;;29.00;;
37169;SDS011;23062;13.952;100.608;2023-04-06T22:22:08;36.00;;;25.20;;
37169;SDS011;23062;13.952;100.608;2023-04-06T22:26:40;38.00;;;30.00;;
37169;SDS011;23062;13.952;100.608;2023-04-06T22:31:08;39.00;;;30.00;;
37169;SDS011;23062;13.952;100.608;2023-04-06T22:35:36;39.00;;;30.00;;
37169;SDS011;23062;13.952;100.608;2023-04-06T22:40:02;37.00;;;27.00;;
37169;SDS011;23062;13.952;100.608;2023-04-06T22:44:26;38.00;;;29.00;;
37169;SDS011;23062;13.952;100.608;2023-04-06T22:48:51;38.00;;;30.00;;
37169;SDS011;23062;13.952;100.608;2023-04-06T22:53:15;42.00;;;32.00;;
37169;SDS011;23062;13.952;100.608;2023-04-06T22:57:41;41.00;;;31.00;;
37169;SDS011;23062;13.952;100.608;2023-04-06T23:02:06;42.00;;;31.00;;
37169;SDS011;23062;13.952;100.608;2023-04-06T23:06:31;40.00;;;30.00;;
37169;SDS011;23062;13.952;100.608;2023-04-06T23:10:57;43.00;;;32.00;;
37169;SDS011;23062;13.952;100.608;2023-04-06T23:15:25;39.00;;;28.00;;
37169;SDS011;23062;13.952;100.608;2023-04-06T23:19:52;40.00;;;32.00;;
37169;SDS011;23062;13.952;100.608;2023-04-06T23:24:17;43.00;;;31.00;;
37169;SDS011;23062;13.952;100.608;2023-04-06T23:28:42;36.00;;;28.00;;
37169;SDS011;23062;13.952;100.608;2023-04-06T23:33:08;41.00;;;32.00;;
37169;SDS011;23062;13.952;100.608;2023-04-06T23:37:34;41.00;;;30.00;;
37169;SDS011;23062;13.952;100.608;2023-04-06T23:42:02;42.00;;;31.00;;
37169;SDS011;23062;13.952;100.608;2023-04-06T23:46:27;42.00;;;32.00;;
37169;SDS011;23062;13.952;100.608;2023-04-06T23:50:59;40.00;;;31.00;;
37169;SDS011;23062;13.952;100.608;2023-04-06T23:55:24;42.00;;;33.00;;
37169;SDS011;23062;13.952;100.608;2023-04-06T23:59:52;40.00;;;30.00;;
